Aviation Digital Data Service (ADDS)

Output produced by METARs form (0557 UTC 01 October 2014)
found at http://aviationweather.gov/adds/metars/
 
KJFK 010538Z 0106/0212 03008KT P6SM -RA OVC012 
     FM011400 02012KT P6SM SCT015 OVC025 
     FM011700 03012KT P6SM SCT015 OVC050 
     FM020200 02010KT P6SM OVC012